Time;durP1;ratioP1;P1;durP2;ratioP2;P2;SDS_P1;SDS_P2;PMS_P1;PMS_P2;Temp;Humidity;BMP_temperature;BMP_pressure;BME280_temperature;BME280_humidity;BME280_pressure;Samples;Min_cycle;Max_cycle;Signal;HPM_P1;HPM_P2
2022/01/13 00:01:04;;;;;;;48.00;17.63;;;;;;;-8.53;100.00;98856.13;5052404;28;20374;-63
2022/01/13 00:03:31;;;;;;;46.83;18.23;;;;;;;-8.56;100.00;98844.19;5052757;28;20416;-63
2022/01/13 00:05:58;;;;;;;51.03;17.37;;;;;;;-8.50;100.00;98851.97;5052113;28;20311;-62
2022/01/13 00:08:25;;;;;;;46.53;15.90;;;;;;;-8.42;100.00;98840.28;5053093;28;20290;-63
2022/01/13 00:10:52;;;;;;;49.07;18.27;;;;;;;-8.40;100.00;98843.69;5052453;28;20291;-63
2022/01/13 00:13:24;;;;;;;41.13;15.90;;;;;;;-8.37;100.00;98845.44;5052682;28;20287;-63
2022/01/13 00:16:22;;;;;;;53.90;16.60;;;;;;;-8.31;100.00;98843.06;5052918;28;20338;-63
2022/01/13 00:18:48;;;;;;;43.17;16.23;;;;;;;-8.19;100.00;98843.31;5052645;28;20791;-63
2022/01/13 00:21:29;;;;;;;43.10;16.90;;;;;;;-8.17;100.00;98847.63;5052147;28;20298;-63
2022/01/13 00:23:59;;;;;;;42.73;16.13;;;;;;;-8.18;100.00;98850.16;5052795;28;20303;-63
2022/01/13 00:26:28;;;;;;;40.07;15.80;;;;;;;-8.20;100.00;98851.81;5051803;28;20656;-63
2022/01/13 00:28:57;;;;;;;47.40;15.13;;;;;;;-8.09;100.00;98856.28;5052461;28;20291;-63
2022/01/13 00:31:28;;;;;;;44.57;17.00;;;;;;;-8.06;100.00;98846.13;5052324;28;20276;-63
2022/01/13 00:33:59;;;;;;;46.37;17.33;;;;;;;-7.99;100.00;98849.69;5051268;28;20294;-64
2022/01/13 00:36:28;;;;;;;48.07;17.30;;;;;;;-8.00;100.00;98853.91;5048392;28;20294;-63
2022/01/13 00:38:56;;;;;;;48.00;17.67;;;;;;;-7.99;100.00;98844.59;5052028;28;20362;-63
2022/01/13 00:41:26;;;;;;;44.20;16.07;;;;;;;-7.88;100.00;98849.06;5052096;28;20291;-63
2022/01/13 00:43:53;;;;;;;37.90;15.73;;;;;;;-8.00;100.00;98853.91;5051961;28;20292;-63
2022/01/13 00:46:22;;;;;;;42.33;15.43;;;;;;;-8.02;100.00;98853.00;5052271;28;20295;-63
2022/01/13 00:48:50;;;;;;;40.93;15.43;;;;;;;-8.08;100.00;98858.00;5051879;28;20299;-64
2022/01/13 00:51:19;;;;;;;36.00;13.43;;;;;;;-8.09;100.00;98853.75;5051792;28;20284;-63
2022/01/13 00:53:46;;;;;;;48.30;16.90;;;;;;;-8.07;100.00;98864.81;5051719;28;20287;-63
2022/01/13 00:56:13;;;;;;;43.10;16.97;;;;;;;-8.02;100.00;98853.00;5051794;28;20286;-63
2022/01/13 00:58:40;;;;;;;43.60;17.17;;;;;;;-8.01;100.00;98844.56;5051784;28;20302;-63
2022/01/13 01:01:08;;;;;;;39.07;15.77;;;;;;;-7.97;100.00;98842.91;5051589;28;20626;-63
2022/01/13 01:03:36;;;;;;;37.27;15.67;;;;;;;-8.00;100.00;98851.38;5051367;28;20336;-63
2022/01/13 01:06:04;;;;;;;33.33;14.60;;;;;;;-8.05;100.00;98842.75;5051547;28;20299;-63
2022/01/13 01:08:34;;;;;;;41.90;14.53;;;;;;;-8.01;100.00;98843.69;5050639;28;20334;-63
2022/01/13 01:11:03;;;;;;;40.20;14.77;;;;;;;-8.00;100.00;98846.25;5051271;28;20816;-63
2022/01/13 01:13:33;;;;;;;37.90;15.17;;;;;;;-7.96;100.00;98835.28;5051216;28;20650;-63
2022/01/13 01:16:02;;;;;;;38.00;14.60;;;;;;;-7.96;100.00;98837.84;5051614;28;20386;-63
2022/01/13 01:18:37;;;;;;;36.33;16.00;;;;;;;-7.92;100.00;98836.22;5051358;28;20362;-63
2022/01/13 01:21:32;;;;;;;37.10;13.13;;;;;;;-7.92;100.00;98833.69;5051238;28;20295;-64
2022/01/13 01:26:48;;;;;;;35.77;12.87;;;;;;;-7.90;100.00;98832.88;5051543;28;20377;-63
2022/01/13 01:29:22;;;;;;;31.70;13.07;;;;;;;-7.93;100.00;98825.13;5051318;28;20292;-63
2022/01/13 01:31:56;;;;;;;34.67;13.37;;;;;;;-7.94;100.00;98825.97;5049948;28;20287;-63
2022/01/13 01:34:38;;;;;;;;;;;;;;;-7.94;100.00;98820.00;5051732;28;20319;-64
2022/01/13 01:37:13;;;;;;;29.37;12.33;;;;;;;-7.98;100.00;98813.97;5050986;28;19932;-63
2022/01/13 01:39:42;;;;;;;32.67;12.00;;;;;;;-8.01;100.00;98807.94;5051746;28;20302;-63
2022/01/13 01:42:10;;;;;;;34.23;12.37;;;;;;;-8.00;100.00;98799.44;5049043;28;20759;-63
2022/01/13 01:44:40;;;;;;;29.60;12.17;;;;;;;-8.01;100.00;98790.06;5051027;28;20697;-64
2022/01/13 01:47:10;;;;;;;43.17;13.03;;;;;;;-8.00;100.00;98795.22;5051744;28;20292;-63
2022/01/13 01:49:40;;;;;;;30.03;13.63;;;;;;;-7.99;100.00;98796.91;5051923;28;20287;-63
2022/01/13 01:52:09;;;;;;;32.33;11.90;;;;;;;-8.03;100.00;98784.09;5051115;28;20291;-63
2022/01/13 01:54:37;;;;;;;36.57;13.23;;;;;;;-8.03;100.00;98778.97;5051222;28;20291;-63
2022/01/13 01:57:06;;;;;;;32.17;12.30;;;;;;;-8.09;100.00;98787.38;5051214;28;20303;-63
2022/01/13 01:59:36;;;;;;;32.97;12.20;;;;;;;-8.07;100.00;98787.38;5050747;28;20291;-64
2022/01/13 02:02:04;;;;;;;30.43;12.00;;;;;;;-8.06;100.00;98779.75;5051080;28;20299;-64
2022/01/13 02:04:31;;;;;;;33.00;12.57;;;;;;;-8.07;100.00;98782.28;5050278;28;20768;-63
2022/01/13 02:07:03;;;;;;;31.13;11.90;;;;;;;-8.16;100.00;98777.03;5051121;28;20692;-63
2022/01/13 02:09:30;;;;;;;33.40;11.47;;;;;;;-8.23;100.00;98764.97;5050931;28;22797;-64
2022/01/13 02:12:04;;;;;;;26.97;10.97;;;;;;;-8.27;100.00;98761.50;5048463;28;20378;-64
2022/01/13 02:14:35;;;;;;;32.22;12.35;;;;;;;-8.30;100.00;98758.00;5050532;28;20291;-64
2022/01/13 02:17:08;;;;;;;26.60;11.10;;;;;;;-8.35;100.00;98765.59;5051068;28;20106;-64
2022/01/13 02:19:40;;;;;;;26.88;9.43;;;;;;;-8.35;100.00;98755.38;5050521;28;20374;-63
2022/01/13 02:22:12;;;;;;;29.30;11.43;;;;;;;-8.32;100.00;98759.69;5050793;28;20095;-63
2022/01/13 02:24:39;;;;;;;25.33;10.67;;;;;;;-8.31;100.00;98759.72;5050526;28;20280;-64
2022/01/13 02:27:08;;;;;;;27.07;10.50;;;;;;;-8.31;100.00;98762.28;5050705;28;20297;-63
2022/01/13 02:29:35;;;;;;;26.03;12.23;;;;;;;-8.35;100.00;98757.06;5050316;28;20299;-64
2022/01/13 02:32:03;;;;;;;27.33;12.60;;;;;;;-8.38;100.00;98755.31;5050808;28;20291;-63
2022/01/13 02:34:30;;;;;;;30.97;11.07;;;;;;;-8.42;100.00;98771.38;5050864;28;20470;-64
2022/01/13 02:36:59;;;;;;;32.70;12.07;;;;;;;-8.45;100.00;98768.75;5050539;28;20287;-64
2022/01/13 02:39:28;;;;;;;31.87;12.20;;;;;;;-8.41;100.00;98770.56;5050821;28;20287;-63
2022/01/13 02:41:56;;;;;;;29.63;10.87;;;;;;;-8.40;100.00;98764.59;5050077;28;20313;-64
2022/01/13 02:44:24;;;;;;;30.03;11.53;;;;;;;-8.37;100.00;98769.78;5050647;28;20316;-64
2022/01/13 02:49:36;;;;;;;28.43;11.93;;;;;;;-8.27;100.00;98752.97;5053512;28;20296;-64
2022/01/13 02:52:04;;;;;;;33.93;12.10;;;;;;;-8.20;100.00;98744.63;5054595;28;20633;-64
2022/01/13 02:54:33;;;;;;;28.60;11.43;;;;;;;-8.07;100.00;98739.75;5053960;28;20345;-64
2022/01/13 02:57:00;;;;;;;31.33;12.40;;;;;;;-7.99;100.00;98737.38;5054259;28;20315;-64
2022/01/13 02:59:27;;;;;;;29.90;11.33;;;;;;;-7.94;100.00;98743.41;5054587;28;20314;-64
2022/01/13 03:01:54;;;;;;;36.50;11.40;;;;;;;-7.88;100.00;98746.09;5054336;28;20319;-63
2022/01/13 03:04:23;;;;;;;27.13;11.03;;;;;;;-7.84;100.00;98746.16;5053973;28;20287;-63
2022/01/13 03:06:50;;;;;;;31.50;12.10;;;;;;;-7.77;99.84;98745.44;5054086;28;20303;-63
2022/01/13 03:09:18;;;;;;;30.63;12.67;;;;;;;-7.73;99.52;98737.00;5054096;28;20368;-63
2022/01/13 03:11:47;;;;;;;28.93;11.87;;;;;;;-7.69;99.79;98740.50;5054139;28;20283;-64
2022/01/13 03:14:14;;;;;;;21.83;9.13;;;;;;;-7.58;99.76;98736.44;5053787;28;20291;-64
2022/01/13 03:16:43;;;;;;;26.90;11.07;;;;;;;-7.60;99.00;98726.19;5053497;28;20284;-63
2022/01/13 03:19:11;;;;;;;24.93;10.93;;;;;;;-7.59;99.32;98717.69;5053879;28;20406;-64
2022/01/13 03:21:38;;;;;;;33.10;12.20;;;;;;;-7.60;98.73;98703.19;5053947;28;20291;-64
2022/01/13 03:24:09;;;;;;;30.97;11.20;;;;;;;-7.60;98.64;98684.44;5056148;28;20295;-64
2022/01/13 03:26:37;;;;;;;31.00;12.47;;;;;;;-7.58;98.95;98678.53;5053824;28;20360;-64
2022/01/13 03:29:15;;;;;;;24.23;9.90;;;;;;;-7.55;98.68;98676.03;5054074;28;20339;-63
2022/01/13 03:31:44;;;;;;;27.57;10.40;;;;;;;-7.54;98.47;98659.00;5050044;28;20345;-64
2022/01/13 03:34:13;;;;;;;24.70;10.53;;;;;;;-7.52;98.52;98658.19;5051977;28;20303;-63
2022/01/13 03:36:40;;;;;;;33.37;11.90;;;;;;;-7.52;98.11;98663.31;5053447;28;20315;-64
2022/01/13 03:39:08;;;;;;;30.07;13.47;;;;;;;-7.50;98.46;98659.09;5053658;28;22312;-63
2022/01/13 03:41:37;;;;;;;26.00;11.10;;;;;;;-7.51;98.10;98659.06;5048606;28;20322;-63
2022/01/13 03:44:16;;;;;;;27.27;11.73;;;;;;;-7.51;98.39;98661.63;5053018;28;20315;-64
2022/01/13 03:46:43;;;;;;;31.73;12.00;;;;;;;-7.53;97.94;98661.59;5053338;28;20357;-64
2022/01/13 03:49:10;;;;;;;25.37;10.17;;;;;;;-7.54;98.35;98644.56;5053225;28;20299;-64
2022/01/13 03:52:31;;;;;;;28.97;10.97;;;;;;;-7.49;98.51;98636.94;5053508;28;20295;-63
2022/01/13 03:55:36;;;;;;;27.90;11.50;;;;;;;-7.49;98.48;98653.13;5048879;28;20295;-64
2022/01/13 03:58:18;;;;;;;;;;;;;;;-7.49;98.23;98663.38;5053458;28;20345;-64
2022/01/13 04:01:27;;;;;;;24.80;9.70;;;;;;;-7.45;97.90;98670.25;5050212;28;19927;-64
2022/01/13 04:03:54;;;;;;;26.40;11.03;;;;;;;-7.49;97.54;98668.47;5049188;28;20370;-64
2022/01/13 04:06:40;;;;;;;33.60;11.43;;;;;;;-7.50;97.64;98668.44;5052517;28;20303;-63
2022/01/13 04:09:10;;;;;;;32.43;11.57;;;;;;;-7.48;98.06;98674.44;5050606;28;20291;-64
2022/01/13 04:11:37;;;;;;;32.90;11.20;;;;;;;-7.54;98.61;98674.34;5053018;28;20322;-64
2022/01/13 04:14:06;;;;;;;33.50;11.53;;;;;;;-7.54;98.82;98671.78;5052790;28;20301;-63
2022/01/13 04:16:36;;;;;;;31.87;11.50;;;;;;;-7.43;99.57;98668.59;5052901;28;20287;-63
2022/01/13 04:19:06;;;;;;;34.57;12.40;;;;;;;-7.39;98.98;98662.69;5052711;28;20357;-62
2022/01/13 04:21:35;;;;;;;32.73;12.13;;;;;;;-7.35;99.06;98667.00;5050620;28;20292;-64
2022/01/13 04:24:04;;;;;;;28.87;14.43;;;;;;;-7.28;99.06;98652.63;5050862;28;20303;-64
2022/01/13 04:26:33;;;;;;;35.30;13.23;;;;;;;-7.22;99.39;98643.34;5051094;28;20292;-64
2022/01/13 04:29:16;;;;;;;26.43;12.47;;;;;;;-7.21;99.33;98642.50;5051021;28;20317;-64
2022/01/13 04:31:49;;;;;;;31.30;13.27;;;;;;;-7.20;99.44;98638.25;5051216;28;20284;-64
2022/01/13 04:34:17;;;;;;;35.28;12.70;;;;;;;-7.21;99.31;98645.03;5050439;28;20421;-65
2022/01/13 04:36:45;;;;;;;36.37;13.33;;;;;;;-7.15;99.21;98645.16;5051186;28;20102;-64
2022/01/13 04:39:14;;;;;;;27.60;13.37;;;;;;;-7.14;99.17;98644.31;5050873;28;20307;-65
2022/01/13 04:41:43;;;;;;;33.63;13.27;;;;;;;-7.21;99.10;98628.88;5049840;28;20752;-64
2022/01/13 04:44:13;;;;;;;27.03;12.17;;;;;;;-7.20;99.33;98630.59;5050682;28;20494;-64
2022/01/13 04:46:41;;;;;;;28.73;11.00;;;;;;;-7.38;98.90;98610.72;5050591;28;20387;-64
2022/01/13 04:49:09;;;;;;;28.77;13.67;;;;;;;-7.50;99.63;98610.56;5050457;28;20724;-64
2022/01/13 04:51:38;;;;;;;32.43;12.50;;;;;;;-7.61;100.00;98609.53;5050640;28;20858;-64
2022/01/13 04:54:06;;;;;;;27.27;10.90;;;;;;;-7.67;100.00;98619.63;5050628;28;20298;-64
2022/01/13 04:56:40;;;;;;;27.53;12.50;;;;;;;-7.72;100.00;98612.72;5050599;28;20295;-64
2022/01/13 04:59:08;;;;;;;35.37;13.10;;;;;;;-7.78;100.00;98608.38;5050546;28;20279;-64
2022/01/13 05:01:36;;;;;;;34.23;13.17;;;;;;;-7.82;100.00;98614.28;5050298;28;20295;-64
2022/01/13 05:04:03;;;;;;;29.37;11.33;;;;;;;-7.85;100.00;98610.78;5050564;28;20302;-65
2022/01/13 05:06:32;;;;;;;35.73;11.70;;;;;;;-7.83;100.00;98609.13;5050257;28;20299;-64
2022/01/13 05:09:02;;;;;;;30.53;11.53;;;;;;;-7.78;100.00;98603.28;5050210;28;20291;-64
2022/01/13 05:11:30;;;;;;;28.67;11.70;;;;;;;-7.69;100.00;98594.91;5046793;28;20291;-65
2022/01/13 05:13:58;;;;;;;29.20;13.27;;;;;;;-7.64;100.00;98586.47;5050024;28;20287;-64
2022/01/13 05:16:30;;;;;;;33.03;12.43;;;;;;;-7.61;100.00;98578.88;5050110;28;20838;-64
2022/01/13 05:19:11;;;;;;;30.25;12.18;;;;;;;-7.55;100.00;98580.66;5050111;28;20287;-64
2022/01/13 05:21:55;;;;;;;36.87;13.07;;;;;;;-7.51;100.00;98596.03;5047563;28;20045;-64
2022/01/13 05:24:22;;;;;;;41.33;15.43;;;;;;;-7.42;100.00;98595.31;5046190;28;20299;-64
2022/01/13 05:26:49;;;;;;;33.10;12.80;;;;;;;-7.40;100.00;98581.72;5049612;28;20295;-64
2022/01/13 05:29:19;;;;;;;32.17;13.17;;;;;;;-7.39;100.00;98586.03;5050154;28;20291;-64
2022/01/13 05:31:47;;;;;;;36.50;14.70;;;;;;;-7.37;100.00;98584.34;5051045;28;20287;-64
2022/01/13 05:34:14;;;;;;;33.80;13.73;;;;;;;-7.33;100.00;98591.19;5049824;28;20322;-64
2022/01/13 05:36:42;;;;;;;38.17;17.03;;;;;;;-7.35;100.00;98585.22;5049591;28;20370;-64
2022/01/13 05:39:10;;;;;;;44.67;15.10;;;;;;;-7.33;100.00;98586.09;5049807;28;20302;-64
2022/01/13 05:41:37;;;;;;;41.57;14.13;;;;;;;-7.30;100.00;98568.25;5049578;28;20440;-64
2022/01/13 05:44:05;;;;;;;30.70;12.87;;;;;;;-7.35;100.00;98564.78;5049139;28;20299;-64
2022/01/13 05:46:32;;;;;;;31.97;14.20;;;;;;;-7.33;100.00;98575.03;5049345;28;20360;-64
2022/01/13 05:48:59;;;;;;;37.27;15.47;;;;;;;-7.36;100.00;98575.81;5049363;28;20863;-64
2022/01/13 05:51:26;;;;;;;38.60;15.60;;;;;;;-7.28;100.00;98561.47;5048411;28;20768;-63
2022/01/13 05:53:54;;;;;;;37.13;13.40;;;;;;;-7.26;100.00;98559.78;5049635;28;20291;-63
2022/01/13 05:56:21;;;;;;;43.57;15.80;;;;;;;-7.28;99.71;98561.47;5049099;28;20628;-63
2022/01/13 05:58:48;;;;;;;38.73;13.93;;;;;;;-7.27;99.81;98560.63;5049394;28;20857;-63
2022/01/13 06:01:15;;;;;;;41.13;16.33;;;;;;;-7.26;99.50;98561.47;5048449;28;20295;-64
2022/01/13 06:03:42;;;;;;;40.37;14.43;;;;;;;-7.24;100.00;98555.56;5049353;28;20283;-63
2022/01/13 06:06:09;;;;;;;41.37;14.70;;;;;;;-7.20;100.00;98547.09;5048634;28;20390;-64
2022/01/13 06:08:36;;;;;;;28.83;14.67;;;;;;;-7.20;100.00;98534.31;5049285;28;20691;-63
2022/01/13 06:11:05;;;;;;;40.90;14.80;;;;;;;-7.18;100.00;98519.00;5049298;28;20305;-63
2022/01/13 06:13:32;;;;;;;34.60;13.47;;;;;;;-7.21;99.80;98526.63;5047430;28;20619;-63
2022/01/13 06:15:59;;;;;;;37.90;13.47;;;;;;;-7.19;100.00;98530.91;5049011;28;20299;-63
2022/01/13 06:18:26;;;;;;;42.23;15.20;;;;;;;-7.21;100.00;98532.56;5049056;28;20280;-64
2022/01/13 06:20:53;;;;;;;43.07;14.80;;;;;;;-7.08;100.00;98544.69;5049529;28;20296;-63
2022/01/13 06:23:20;;;;;;;38.47;14.30;;;;;;;-7.03;99.99;98547.31;5050114;28;20831;-66
2022/01/13 06:25:47;;;;;;;45.40;17.97;;;;;;;-7.00;100.00;98570.38;5053755;28;20648;-65
2022/01/13 06:28:15;;;;;;;49.33;18.00;;;;;;;-6.87;100.00;98573.09;5052952;28;20384;-65
2022/01/13 06:30:42;;;;;;;40.27;16.43;;;;;;;-6.76;100.00;98574.09;5054399;28;20283;-65
2022/01/13 06:33:09;;;;;;;38.33;14.53;;;;;;;-6.84;100.00;98570.59;5054894;28;20826;-64
2022/01/13 06:35:37;;;;;;;40.13;15.20;;;;;;;-6.81;100.00;98570.59;5035064;28;20310;-64
2022/01/13 06:38:04;;;;;;;37.60;14.37;;;;;;;-6.79;100.00;98551.03;5053719;28;20295;-64
2022/01/13 06:40:31;;;;;;;41.07;16.50;;;;;;;-6.79;100.00;98547.59;5054758;28;20370;-64
2022/01/13 06:42:58;;;;;;;43.37;16.20;;;;;;;-6.81;100.00;98550.13;5053528;28;20303;-63
2022/01/13 06:45:26;;;;;;;46.40;17.43;;;;;;;-6.83;100.00;98556.94;5052653;28;20323;-64
2022/01/13 06:47:53;;;;;;;37.47;14.50;;;;;;;-6.74;100.00;98544.25;5052356;28;21104;-64
2022/01/13 06:50:20;;;;;;;40.43;14.93;;;;;;;-6.64;100.00;98546.09;5052829;28;20730;-64
2022/01/13 06:52:48;;;;;;;45.60;16.63;;;;;;;-6.51;100.00;98541.97;5053479;28;20294;-64
2022/01/13 06:55:15;;;;;;;45.93;17.07;;;;;;;-6.49;100.00;98532.59;5053401;28;20292;-64
2022/01/13 06:57:42;;;;;;;41.80;16.07;;;;;;;-6.55;100.00;98518.03;5052676;28;20283;-64
2022/01/13 07:00:10;;;;;;;39.73;17.10;;;;;;;-6.54;100.00;98527.44;5052383;28;20291;-64
2022/01/13 07:02:39;;;;;;;37.40;15.10;;;;;;;-6.50;100.00;98520.66;5052363;28;20291;-64
2022/01/13 07:05:07;;;;;;;46.23;18.33;;;;;;;-6.52;100.00;98530.03;5052727;28;20629;-65
2022/01/13 07:07:36;;;;;;;39.07;16.13;;;;;;;-6.51;100.00;98530.00;5052129;28;20299;-68
2022/01/13 07:10:04;;;;;;;49.00;18.83;;;;;;;-6.46;100.00;98530.94;5052461;28;21159;-68
2022/01/13 07:12:31;;;;;;;45.60;16.90;;;;;;;-6.25;100.00;98535.41;5051738;28;20314;-67
2022/01/13 07:14:58;;;;;;;32.07;14.03;;;;;;;-6.18;100.00;98530.34;5052523;28;20295;-68
2022/01/13 07:17:26;;;;;;;40.73;18.40;;;;;;;-6.25;100.00;98533.72;5052527;28;20780;-68
2022/01/13 07:19:54;;;;;;;51.50;17.47;;;;;;;-6.31;100.00;98523.41;5053107;28;20648;-68
2022/01/13 07:22:21;;;;;;;46.00;17.50;;;;;;;-6.23;100.00;98526.03;5049061;28;20715;-68
2022/01/13 07:24:48;;;;;;;41.23;17.00;;;;;;;-5.88;100.00;98525.50;5051226;28;20306;-68
2022/01/13 07:27:15;;;;;;;41.80;17.40;;;;;;;-5.67;100.00;98521.38;5052071;28;20307;-68
2022/01/13 07:29:43;;;;;;;48.53;19.70;;;;;;;-5.53;100.00;98518.06;5052093;28;20378;-70
2022/01/13 07:32:10;;;;;;;40.50;16.47;;;;;;;-5.39;100.00;98520.72;5051939;28;20288;-71
2022/01/13 07:34:37;;;;;;;44.27;18.37;;;;;;;-5.54;100.00;98520.63;5051618;28;20323;-71
2022/01/13 07:37:06;;;;;;;41.47;18.40;;;;;;;-5.52;100.00;98506.97;5051486;28;20724;-71
2022/01/13 07:39:35;;;;;;;38.43;13.87;;;;;;;-5.52;100.00;98488.16;5051418;28;20041;-70
2022/01/13 07:42:03;;;;;;;44.27;16.03;;;;;;;-5.50;100.00;98476.22;5052113;28;20068;-72
2022/01/13 07:44:30;;;;;;;35.27;13.63;;;;;;;-5.45;100.00;98470.28;5047911;28;20672;-71
2022/01/13 07:46:58;;;;;;;45.57;19.53;;;;;;;-5.30;100.00;98472.91;5051332;28;20045;-71
2022/01/13 07:49:25;;;;;;;38.13;15.37;;;;;;;-5.05;100.00;98464.44;5051658;28;20049;-71
2022/01/13 07:51:52;;;;;;;45.27;18.40;;;;;;;-5.00;100.00;98464.47;5051210;28;20553;-70
2022/01/13 07:54:20;;;;;;;49.77;19.47;;;;;;;-4.97;100.00;98455.09;5048447;28;20045;-71
2022/01/13 07:56:47;;;;;;;44.27;17.43;;;;;;;-4.92;100.00;98448.28;5051897;28;20292;-71
2022/01/13 07:59:14;;;;;;;47.17;18.53;;;;;;;-4.88;100.00;98459.38;5053181;28;20832;-71
2022/01/13 08:01:41;;;;;;;43.83;16.60;;;;;;;-4.85;100.00;98444.00;5052871;28;20371;-71
2022/01/13 08:04:08;;;;;;;44.30;18.10;;;;;;;-4.77;100.00;98429.47;5051031;28;20053;-68
2022/01/13 08:06:35;;;;;;;42.87;17.33;;;;;;;-4.80;100.00;98450.03;5051184;28;20052;-66
2022/01/13 08:09:03;;;;;;;43.90;17.53;;;;;;;-4.87;100.00;98440.59;5050959;28;20044;-68
2022/01/13 08:11:31;;;;;;;36.50;17.03;;;;;;;-4.93;100.00;98425.16;5051504;28;20086;-67
2022/01/13 08:13:58;;;;;;;42.70;16.70;;;;;;;-4.92;100.00;98411.47;5051546;28;20211;-67
2022/01/13 08:16:32;;;;;;;32.57;13.57;;;;;;;-4.85;100.00;98405.50;5051454;28;20098;-66
2022/01/13 08:21:43;;;;;;;42.13;16.60;;;;;;;-4.78;100.00;98399.53;5050896;28;20040;-69
2022/01/13 08:24:10;;;;;;;45.40;15.60;;;;;;;-4.73;100.00;98395.28;5050645;28;20106;-70
2022/01/13 08:26:39;;;;;;;43.13;15.73;;;;;;;-4.68;100.00;98394.44;5050905;28;20067;-69
2022/01/13 08:29:06;;;;;;;46.00;18.37;;;;;;;-4.59;100.00;98396.16;5051024;28;20045;-70
2022/01/13 08:31:33;;;;;;;37.40;16.63;;;;;;;-4.55;100.00;98403.00;5051161;28;20112;-74
2022/01/13 08:34:00;;;;;;;39.73;16.63;;;;;;;-4.55;100.00;98397.84;5050116;28;20037;-69
2022/01/13 08:36:27;;;;;;;42.57;16.37;;;;;;;-4.47;100.00;98401.31;5050963;28;20386;-69
2022/01/13 08:38:54;;;;;;;41.20;16.47;;;;;;;-4.28;100.00;98403.03;5051664;28;20043;-69
2022/01/13 08:41:20;;;;;;;44.53;17.97;;;;;;;-4.37;100.00;98409.00;5051484;28;20059;-68
2022/01/13 08:43:51;;;;;;;41.17;18.33;;;;;;;-4.39;100.00;98402.16;5051691;28;20069;-67
2022/01/13 08:46:18;;;;;;;44.33;16.97;;;;;;;-4.34;100.00;98403.00;5050305;28;20737;-67
2022/01/13 08:48:45;;;;;;;39.83;17.07;;;;;;;-4.11;100.00;98403.84;5049755;28;20102;-67
2022/01/13 08:51:12;;;;;;;38.80;18.00;;;;;;;-4.03;100.00;98409.88;5051169;28;20813;-67
2022/01/13 08:53:39;;;;;;;42.23;17.27;;;;;;;-3.79;100.00;98408.13;5050477;28;20865;-67
2022/01/13 08:56:06;;;;;;;46.53;19.70;;;;;;;-3.88;100.00;98392.69;5048569;28;20074;-66
2022/01/13 08:58:33;;;;;;;43.03;17.43;;;;;;;-3.95;100.00;98400.44;5050258;28;20045;-67
2022/01/13 09:01:02;;;;;;;43.40;16.70;;;;;;;-3.96;100.00;98406.41;5050475;28;20052;-67
2022/01/13 09:03:29;;;;;;;41.13;18.03;;;;;;;-3.80;100.00;98403.81;5050236;28;20489;-66
2022/01/13 09:05:56;;;;;;;48.77;18.83;;;;;;;-3.82;100.00;98394.41;5050616;28;20052;-67
2022/01/13 09:08:23;;;;;;;36.27;17.03;;;;;;;-3.83;100.00;98398.69;5050374;28;20131;-67
2022/01/13 09:10:50;;;;;;;48.13;17.50;;;;;;;-3.65;100.00;98402.94;5050203;28;20051;-67
2022/01/13 09:13:17;;;;;;;52.60;18.70;;;;;;;-3.69;100.00;98424.38;5050584;28;20525;-65
2022/01/13 09:15:49;;;;;;;40.20;14.70;;;;;;;-3.83;100.00;98416.69;5049702;28;20140;-61
2022/01/13 09:18:29;;;;;;;40.80;16.13;;;;;;;-3.77;100.00;98421.81;5050225;28;20141;-67
2022/01/13 09:20:56;;;;;;;37.73;16.90;;;;;;;-3.51;100.00;98409.75;5048706;28;20047;-66
2022/01/13 09:23:23;;;;;;;43.43;16.60;;;;;;;-3.13;100.00;98396.75;5049350;28;20037;-67
2022/01/13 09:25:51;;;;;;;46.73;17.73;;;;;;;-2.82;100.00;98390.56;5048589;28;20156;-66
2022/01/13 09:28:18;;;;;;;38.93;18.27;;;;;;;-2.55;100.00;98369.81;5045084;28;20045;-67
2022/01/13 09:30:45;;;;;;;40.37;17.33;;;;;;;-2.50;100.00;98358.59;5049181;28;20147;-67
2022/01/13 09:33:12;;;;;;;42.83;17.27;;;;;;;-2.58;100.00;98357.81;5049768;28;20080;-68
2022/01/13 09:35:41;;;;;;;41.07;17.57;;;;;;;-2.55;100.00;98347.44;5049679;28;20045;-67
2022/01/13 09:38:08;;;;;;;41.70;17.57;;;;;;;-2.61;100.00;98362.09;5050125;28;20124;-67
2022/01/13 09:40:35;;;;;;;35.63;15.53;;;;;;;-2.76;100.00;98380.25;5049867;28;20118;-67
2022/01/13 09:43:03;;;;;;;40.77;14.97;;;;;;;-2.89;100.00;98387.19;5047726;28;20053;-67
2022/01/13 09:45:31;;;;;;;46.40;18.00;;;;;;;-2.98;100.00;98394.97;5049725;28;20045;-67
2022/01/13 09:47:58;;;;;;;76.00;37.77;;;;;;;-3.01;100.00;98387.25;5049833;28;20051;-67
2022/01/13 09:50:26;;;;;;;46.53;17.80;;;;;;;-3.00;100.00;98376.09;5049817;28;20489;-67
2022/01/13 09:52:55;;;;;;;43.43;17.50;;;;;;;-2.95;100.00;98374.31;5049671;28;20485;-67
2022/01/13 09:55:22;;;;;;;47.80;19.77;;;;;;;-2.93;100.00;98372.63;5048996;28;20120;-67
2022/01/13 09:57:51;;;;;;;49.47;19.17;;;;;;;-2.83;100.00;98373.41;5048439;28;20051;-70
2022/01/13 10:00:21;;;;;;;52.67;19.40;;;;;;;-2.82;100.00;98344.22;5049175;28;20143;-69
2022/01/13 10:02:48;;;;;;;44.40;19.87;;;;;;;-2.69;100.00;98358.75;5049749;28;20051;-69
2022/01/13 10:05:17;;;;;;;40.17;17.90;;;;;;;-2.71;100.00;98358.75;5049329;28;20405;-70
2022/01/13 10:07:45;;;;;;;43.27;18.30;;;;;;;-2.66;100.00;98367.28;5049352;28;20037;-69
2022/01/13 10:10:16;;;;;;;51.47;19.13;;;;;;;-2.61;100.00;98342.38;5049155;28;20110;-70
2022/01/13 10:12:44;;;;;;;46.50;17.87;;;;;;;-2.58;100.00;98339.78;5050878;28;20172;-70
2022/01/13 10:17:57;;;;;;;54.57;21.40;;;;;;;-2.38;100.00;98329.28;5049338;28;20041;-69
2022/01/13 10:20:24;;;;;;;57.20;21.53;;;;;;;-2.43;100.00;98313.91;5049202;28;20051;-69
2022/01/13 10:22:52;;;;;;;59.30;22.10;;;;;;;-2.45;100.00;98319.91;5049735;28;20149;-70
2022/01/13 10:25:31;;;;;;;48.40;20.23;;;;;;;-2.53;100.00;98303.66;5048682;28;20528;-70
2022/01/13 10:28:12;;;;;;;52.40;17.10;;;;;;;-2.51;100.00;98304.50;5049348;28;20037;-69
2022/01/13 10:30:40;;;;;;;62.93;22.17;;;;;;;-2.39;100.00;98294.09;5049169;28;20045;-70
2022/01/13 10:33:20;;;;;;;43.30;18.10;;;;;;;-2.34;100.00;98262.28;5049056;28;20083;-70
2022/01/13 10:35:49;;;;;;;62.30;22.23;;;;;;;-2.38;100.00;98270.03;5044737;28;20132;-70
2022/01/13 10:38:17;;;;;;;44.73;19.03;;;;;;;-2.29;100.00;98288.00;5048920;28;20088;-70
2022/01/13 10:40:48;;;;;;;46.80;19.97;;;;;;;-2.42;100.00;98287.25;5049408;28;20049;-70
2022/01/13 10:43:16;;;;;;;54.47;20.47;;;;;;;-2.44;100.00;98283.81;5048068;28;20059;-74
2022/01/13 10:45:49;;;;;;;45.37;18.60;;;;;;;-2.40;100.00;98289.81;5050491;28;20300;-70
2022/01/13 10:48:21;;;;;;;48.65;21.05;;;;;;;-2.48;100.00;98278.75;5048869;28;20037;-74
2022/01/13 10:50:54;;;;;;;47.07;20.17;;;;;;;-2.49;100.00;98266.72;5049188;28;20041;-71
2022/01/13 10:53:25;;;;;;;46.42;18.58;;;;;;;-2.45;100.00;98263.22;5049160;28;20159;-70
2022/01/13 10:55:55;;;;;;;47.77;21.10;;;;;;;-2.38;100.00;98258.03;5049217;28;20555;-70
2022/01/13 10:58:25;;;;;;;48.20;18.53;;;;;;;-2.40;100.00;98254.59;5049334;28;20118;-71
2022/01/13 11:00:55;;;;;;;43.73;18.83;;;;;;;-2.45;100.00;98258.06;5049108;28;20543;-70
2022/01/13 11:03:24;;;;;;;47.50;17.53;;;;;;;-2.46;100.00;98253.81;5048727;28;20083;-69
2022/01/13 11:05:53;;;;;;;46.87;18.17;;;;;;;-2.43;100.00;98235.75;5048942;28;20039;-69
2022/01/13 11:08:27;;;;;;;52.07;18.77;;;;;;;-2.37;100.00;98240.84;5048726;28;20044;-70
2022/01/13 11:10:58;;;;;;;41.27;16.97;;;;;;;-2.38;100.00;98209.06;5052751;28;20041;-71
2022/01/13 11:13:27;;;;;;;44.60;18.17;;;;;;;-2.35;100.00;98227.09;5054392;28;20041;-70
2022/01/13 11:15:55;;;;;;;54.87;19.97;;;;;;;-2.31;100.00;98225.31;5054563;28;20094;-68
2022/01/13 11:18:25;;;;;;;42.43;17.90;;;;;;;-2.27;100.00;98226.16;5054248;28;20037;-68
2022/01/13 11:20:52;;;;;;;42.30;17.47;;;;;;;-2.36;100.00;98220.22;5053789;28;20049;-67
2022/01/13 11:23:20;;;;;;;42.20;20.47;;;;;;;-2.39;100.00;98216.81;5053810;28;20049;-67
2022/01/13 11:25:53;;;;;;;42.07;19.83;;;;;;;-2.42;100.00;98215.13;5051316;28;20118;-67
2022/01/13 11:28:24;;;;;;;41.03;18.05;;;;;;;-2.26;100.00;98210.69;5050898;28;20124;-68
2022/01/13 11:30:52;;;;;;;40.90;17.20;;;;;;;-2.22;100.00;98203.75;5052031;28;20048;-69
2022/01/13 11:33:19;;;;;;;43.60;19.23;;;;;;;-2.25;100.00;98197.75;5052359;28;20059;-68